sensor_id;sensor_type;location;lat;lon;timestamp;pressure;altitude;pressure_sealevel;temperature;humidity
49583;BME280;36329;48.816;44.624;2023-04-04T00:02:17;101077;;;11.9;79.8
49583;BME280;36329;48.816;44.624;2023-04-04T00:05:19;101077;;;11.8;80.6
49583;BME280;36329;48.816;44.624;2023-04-04T00:08:21;101073;;;12;79.1
49583;BME280;36329;48.816;44.624;2023-04-04T00:11:25;101068;;;11.9;79.8
49583;BME280;36329;48.816;44.624;2023-04-04T00:14:27;101074;;;12;79.3
49583;BME280;36329;48.816;44.624;2023-04-04T00:17:29;101081;;;12;79.3
49583;BME280;36329;48.816;44.624;2023-04-04T00:20:31;101076;;;11.8;80
49583;BME280;36329;48.816;44.624;2023-04-04T00:23:33;101079;;;11.6;81.9
49583;BME280;36329;48.816;44.624;2023-04-04T00:26:35;101082;;;11.8;80.4
49583;BME280;36329;48.816;44.624;2023-04-04T00:29:37;101086;;;11.5;81.6
49583;BME280;36329;48.816;44.624;2023-04-04T00:32:39;101092;;;11.4;82
49583;BME280;36329;48.816;44.624;2023-04-04T00:35:41;101095;;;11.4;81.9
49583;BME280;36329;48.816;44.624;2023-04-04T00:38:43;101091;;;11.4;81.4
49583;BME280;36329;48.816;44.624;2023-04-04T00:41:47;101096;;;11.6;80.9
49583;BME280;36329;48.816;44.624;2023-04-04T00:44:50;101094;;;11.7;80.1
49583;BME280;36329;48.816;44.624;2023-04-04T00:48:00;101100;;;11.8;79.6
49583;BME280;36329;48.816;44.624;2023-04-04T00:51:03;101107;;;11.9;78.2
49583;BME280;36329;48.816;44.624;2023-04-04T00:54:05;101108;;;11.9;78.1
49583;BME280;36329;48.816;44.624;2023-04-04T00:57:07;101102;;;11.8;79.1
49583;BME280;36329;48.816;44.624;2023-04-04T01:00:10;101108;;;11.8;79.8
49583;BME280;36329;48.816;44.624;2023-04-04T01:03:12;101104;;;11.7;80.3
49583;BME280;36329;48.816;44.624;2023-04-04T01:06:14;101105;;;11.5;81.4
49583;BME280;36329;48.816;44.624;2023-04-04T01:09:17;101103;;;11.7;80.2
49583;BME280;36329;48.816;44.624;2023-04-04T01:12:19;101105;;;11.7;80.3
49583;BME280;36329;48.816;44.624;2023-04-04T01:15:21;101104;;;11.7;80.3
49583;BME280;36329;48.816;44.624;2023-04-04T01:18:24;101104;;;11.5;81
49583;BME280;36329;48.816;44.624;2023-04-04T01:21:28;101101;;;11.5;80.6
49583;BME280;36329;48.816;44.624;2023-04-04T01:24:32;101097;;;11.4;82.4
49583;BME280;36329;48.816;44.624;2023-04-04T01:27:34;101088;;;11.4;83.9
49583;BME280;36329;48.816;44.624;2023-04-04T01:30:38;101091;;;11.3;84.9
49583;BME280;36329;48.816;44.624;2023-04-04T01:33:45;101090;;;11.2;86.6
49583;BME280;36329;48.816;44.624;2023-04-04T01:36:57;101087;;;11.1;89
49583;BME280;36329;48.816;44.624;2023-04-04T01:40:07;101085;;;11.1;89.9
49583;BME280;36329;48.816;44.624;2023-04-04T01:43:10;101081;;;11;91.4
49583;BME280;36329;48.816;44.624;2023-04-04T01:46:15;101090;;;11.1;91.7
49583;BME280;36329;48.816;44.624;2023-04-04T01:49:17;101089;;;11;92
49583;BME280;36329;48.816;44.624;2023-04-04T01:52:19;101102;;;11.1;91.3
49583;BME280;36329;48.816;44.624;2023-04-04T01:55:21;101102;;;10.7;94.1
49583;BME280;36329;48.816;44.624;2023-04-04T01:58:23;101093;;;10.7;95.9
49583;BME280;36329;48.816;44.624;2023-04-04T02:01:25;101090;;;10.7;95.7
49583;BME280;36329;48.816;44.624;2023-04-04T02:04:26;101085;;;10.8;95.3
49583;BME280;36329;48.816;44.624;2023-04-04T02:07:28;101089;;;10.9;94.6
49583;BME280;36329;48.816;44.624;2023-04-04T02:10:30;101096;;;10.5;95.9
49583;BME280;36329;48.816;44.624;2023-04-04T02:13:32;101101;;;10.6;96.4
49583;BME280;36329;48.816;44.624;2023-04-04T02:16:34;101103;;;10.4;97.3
49583;BME280;36329;48.816;44.624;2023-04-04T02:19:36;101097;;;10.4;97.3
49583;BME280;36329;48.816;44.624;2023-04-04T02:22:38;101100;;;10.4;98.2
49583;BME280;36329;48.816;44.624;2023-04-04T02:25:40;101109;;;10.4;98
49583;BME280;36329;48.816;44.624;2023-04-04T02:28:42;101109;;;10.3;98.4
49583;BME280;36329;48.816;44.624;2023-04-04T02:31:44;101109;;;10.3;99.1
49583;BME280;36329;48.816;44.624;2023-04-04T02:34:46;101112;;;10.3;98.7
49583;BME280;36329;48.816;44.624;2023-04-04T02:37:47;101113;;;10.3;99.1
49583;BME280;36329;48.816;44.624;2023-04-04T02:40:50;101118;;;10.5;96.3
49583;BME280;36329;48.816;44.624;2023-04-04T02:43:52;101120;;;10.6;96.6
49583;BME280;36329;48.816;44.624;2023-04-04T02:46:54;101124;;;10.7;96.7
49583;BME280;36329;48.816;44.624;2023-04-04T02:49:56;101119;;;10.8;95.7
49583;BME280;36329;48.816;44.624;2023-04-04T02:52:58;101130;;;10.9;95.3
49583;BME280;36329;48.816;44.624;2023-04-04T02:56:01;101132;;;11.1;93.5
49583;BME280;36329;48.816;44.624;2023-04-04T02:59:03;101133;;;11.1;92.2
49583;BME280;36329;48.816;44.624;2023-04-04T03:02:05;101135;;;11;91.2
49583;BME280;36329;48.816;44.624;2023-04-04T03:05:08;101137;;;10.4;91.1
49583;BME280;36329;48.816;44.624;2023-04-04T03:08:10;101139;;;9.8;97.3
49583;BME280;36329;48.816;44.624;2023-04-04T03:11:11;101141;;;10.1;97.1
49583;BME280;36329;48.816;44.624;2023-04-04T03:14:17;101140;;;10.3;95.8
49583;BME280;36329;48.816;44.624;2023-04-04T03:17:19;101149;;;10.6;93.1
49583;BME280;36329;48.816;44.624;2023-04-04T03:20:22;101152;;;10.6;90.8
49583;BME280;36329;48.816;44.624;2023-04-04T03:23:23;101147;;;10.3;93.2
49583;BME280;36329;48.816;44.624;2023-04-04T03:26:25;101147;;;10.5;92.9
49583;BME280;36329;48.816;44.624;2023-04-04T03:29:27;101144;;;10.4;93.9
49583;BME280;36329;48.816;44.624;2023-04-04T03:32:29;101154;;;10.2;94.8
49583;BME280;36329;48.816;44.624;2023-04-04T03:35:31;101156;;;10.6;92.8
49583;BME280;36329;48.816;44.624;2023-04-04T03:38:33;101170;;;10.8;91.1
49583;BME280;36329;48.816;44.624;2023-04-04T03:41:35;101162;;;10.8;91
49583;BME280;36329;48.816;44.624;2023-04-04T03:44:39;101169;;;10.8;91.5
49583;BME280;36329;48.816;44.624;2023-04-04T03:47:41;101159;;;11;89.7
49583;BME280;36329;48.816;44.624;2023-04-04T03:50:42;101163;;;11.1;90.3
49583;BME280;36329;48.816;44.624;2023-04-04T03:53:44;101165;;;11.3;88.4
49583;BME280;36329;48.816;44.624;2023-04-04T03:56:46;101165;;;11.4;88.6
49583;BME280;36329;48.816;44.624;2023-04-04T03:59:48;101172;;;11.3;89.8
49583;BME280;36329;48.816;44.624;2023-04-04T04:02:50;101171;;;11.4;87.9
49583;BME280;36329;48.816;44.624;2023-04-04T04:05:52;101179;;;11.6;86.5
49583;BME280;36329;48.816;44.624;2023-04-04T04:08:54;101179;;;11.6;87.5
49583;BME280;36329;48.816;44.624;2023-04-04T04:11:56;101173;;;11.6;87.8
49583;BME280;36329;48.816;44.624;2023-04-04T04:14:58;101173;;;11.7;87.5
49583;BME280;36329;48.816;44.624;2023-04-04T04:18:00;101164;;;11.7;87.8
49583;BME280;36329;48.816;44.624;2023-04-04T04:21:02;101165;;;11.7;87.7
49583;BME280;36329;48.816;44.624;2023-04-04T04:24:05;101169;;;12;86
49583;BME280;36329;48.816;44.624;2023-04-04T04:27:07;101169;;;12.2;85
49583;BME280;36329;48.816;44.624;2023-04-04T04:30:09;101172;;;12.4;83.6
49583;BME280;36329;48.816;44.624;2023-04-04T04:33:11;101170;;;12.4;83.4
49583;BME280;36329;48.816;44.624;2023-04-04T04:36:13;101171;;;12.6;83.3
49583;BME280;36329;48.816;44.624;2023-04-04T04:39:15;101172;;;12.9;81.6
49583;BME280;36329;48.816;44.624;2023-04-04T04:42:17;101172;;;13;80.4
49583;BME280;36329;48.816;44.624;2023-04-04T04:45:19;101166;;;13.2;79.7
49583;BME280;36329;48.816;44.624;2023-04-04T04:48:21;101173;;;13.1;79.8
49583;BME280;36329;48.816;44.624;2023-04-04T04:51:23;101171;;;13.1;79.7
49583;BME280;36329;48.816;44.624;2023-04-04T04:54:25;101175;;;13.3;79.1
49583;BME280;36329;48.816;44.624;2023-04-04T04:57:27;101173;;;13.4;78.3
49583;BME280;36329;48.816;44.624;2023-04-04T05:00:29;101177;;;13.6;77.1
49583;BME280;36329;48.816;44.624;2023-04-04T05:03:31;101179;;;13.7;76.6
49583;BME280;36329;48.816;44.624;2023-04-04T05:06:33;101171;;;13.8;76.4
49583;BME280;36329;48.816;44.624;2023-04-04T05:09:35;101175;;;13.9;75.5
49583;BME280;36329;48.816;44.624;2023-04-04T05:12:40;101173;;;13.9;75.2
49583;BME280;36329;48.816;44.624;2023-04-04T05:15:45;101174;;;14.1;74.4
49583;BME280;36329;48.816;44.624;2023-04-04T05:18:47;101181;;;13.8;74.1
49583;BME280;36329;48.816;44.624;2023-04-04T05:21:49;101183;;;14.3;72.4
49583;BME280;36329;48.816;44.624;2023-04-04T05:24:51;101190;;;14.5;71.4
49583;BME280;36329;48.816;44.624;2023-04-04T05:27:53;101188;;;14;72.9
49583;BME280;36329;48.816;44.624;2023-04-04T05:30:55;101192;;;14.5;71.5
49583;BME280;36329;48.816;44.624;2023-04-04T05:33:57;101189;;;14.1;72.5
49583;BME280;36329;48.816;44.624;2023-04-04T05:36:59;101193;;;14.1;72.9
49583;BME280;36329;48.816;44.624;2023-04-04T05:40:01;101203;;;14.7;71
49583;BME280;36329;48.816;44.624;2023-04-04T05:43:05;101205;;;14.9;69.6
49583;BME280;36329;48.816;44.624;2023-04-04T05:46:07;101204;;;15;69.5
49583;BME280;36329;48.816;44.624;2023-04-04T05:49:09;101197;;;15;69.7
49583;BME280;36329;48.816;44.624;2023-04-04T05:52:11;101193;;;15.4;68.5
49583;BME280;36329;48.816;44.624;2023-04-04T05:55:13;101189;;;15.6;67.9
49583;BME280;36329;48.816;44.624;2023-04-04T05:58:15;101197;;;15;70
49583;BME280;36329;48.816;44.624;2023-04-04T06:01:17;101201;;;14.8;72.3
49583;BME280;36329;48.816;44.624;2023-04-04T06:04:19;101200;;;15.2;70.7
49583;BME280;36329;48.816;44.624;2023-04-04T06:07:21;101199;;;15.4;69.1
49583;BME280;36329;48.816;44.624;2023-04-04T06:10:23;101196;;;16;67.8
49583;BME280;36329;48.816;44.624;2023-04-04T06:13:26;101200;;;16.4;66
49583;BME280;36329;48.816;44.624;2023-04-04T06:16:28;101201;;;16.8;64.2
49583;BME280;36329;48.816;44.624;2023-04-04T06:19:31;101193;;;16.2;66.5
49583;BME280;36329;48.816;44.624;2023-04-04T06:22:33;101196;;;16.4;65.4
49583;BME280;36329;48.816;44.624;2023-04-04T06:25:35;101196;;;17.2;63
49583;BME280;36329;48.816;44.624;2023-04-04T06:28:45;101201;;;17.3;63
49583;BME280;36329;48.816;44.624;2023-04-04T06:31:48;101201;;;17;62.9
49583;BME280;36329;48.816;44.624;2023-04-04T06:34:50;101194;;;17;64.3
49583;BME280;36329;48.816;44.624;2023-04-04T06:37:53;101198;;;17.1;62.8
49583;BME280;36329;48.816;44.624;2023-04-04T06:40:57;101199;;;17.6;61.6
49583;BME280;36329;48.816;44.624;2023-04-04T06:43:59;101199;;;17.6;61.6
49583;BME280;36329;48.816;44.624;2023-04-04T06:47:01;101193;;;18.2;59.8
49583;BME280;36329;48.816;44.624;2023-04-04T06:50:03;101205;;;19;57.3
49583;BME280;36329;48.816;44.624;2023-04-04T06:53:06;101205;;;18.6;58.6
49583;BME280;36329;48.816;44.624;2023-04-04T06:56:08;101198;;;18.5;58.3
49583;BME280;36329;48.816;44.624;2023-04-04T06:59:10;101204;;;18.1;59.5
49583;BME280;36329;48.816;44.624;2023-04-04T07:02:12;101201;;;18.7;59.1
49583;BME280;36329;48.816;44.624;2023-04-04T07:05:14;101205;;;19;56.8
49583;BME280;36329;48.816;44.624;2023-04-04T07:08:16;101208;;;18.5;56.7
49583;BME280;36329;48.816;44.624;2023-04-04T07:11:18;101206;;;18.2;57.8
49583;BME280;36329;48.816;44.624;2023-04-04T07:14:20;101204;;;19.1;55.4
49583;BME280;36329;48.816;44.624;2023-04-04T07:17:22;101198;;;18.5;56.7
49583;BME280;36329;48.816;44.624;2023-04-04T07:20:24;101197;;;18.5;57.2
49583;BME280;36329;48.816;44.624;2023-04-04T07:23:25;101194;;;19.3;55.7
49583;BME280;36329;48.816;44.624;2023-04-04T07:26:27;101201;;;19.1;55.1
49583;BME280;36329;48.816;44.624;2023-04-04T07:29:29;101194;;;19.7;54
49583;BME280;36329;48.816;44.624;2023-04-04T07:32:32;101190;;;19.9;52.4
49583;BME280;36329;48.816;44.624;2023-04-04T07:35:34;101195;;;19.9;52.3
49583;BME280;36329;48.816;44.624;2023-04-04T07:38:36;101192;;;20.7;49.7
49583;BME280;36329;48.816;44.624;2023-04-04T07:41:38;101192;;;20.5;51.5
49583;BME280;36329;48.816;44.624;2023-04-04T07:44:40;101194;;;20.1;50.1
49583;BME280;36329;48.816;44.624;2023-04-04T07:47:42;101197;;;19.8;50.2
49583;BME280;36329;48.816;44.624;2023-04-04T07:50:44;101194;;;19.6;50.3
49583;BME280;36329;48.816;44.624;2023-04-04T07:53:46;101192;;;19.9;50.8
49583;BME280;36329;48.816;44.624;2023-04-04T07:56:48;101184;;;20.3;48.2
49583;BME280;36329;48.816;44.624;2023-04-04T07:59:50;101183;;;20.3;48.8
49583;BME280;36329;48.816;44.624;2023-04-04T08:02:52;101182;;;20.1;48.7
49583;BME280;36329;48.816;44.624;2023-04-04T08:05:54;101184;;;20.4;48
49583;BME280;36329;48.816;44.624;2023-04-04T08:08:56;101185;;;20.4;48.6
49583;BME280;36329;48.816;44.624;2023-04-04T08:11:58;101169;;;20.4;49.7
49583;BME280;36329;48.816;44.624;2023-04-04T08:15:00;101172;;;21.4;46.2
49583;BME280;36329;48.816;44.624;2023-04-04T08:18:02;101166;;;21.1;46.1
49583;BME280;36329;48.816;44.624;2023-04-04T08:21:04;101170;;;21.1;45.3
49583;BME280;36329;48.816;44.624;2023-04-04T08:24:06;101161;;;21.1;45.1
49583;BME280;36329;48.816;44.624;2023-04-04T08:27:09;101165;;;21.6;44.3
49583;BME280;36329;48.816;44.624;2023-04-04T08:30:12;101164;;;21.3;44.5
49583;BME280;36329;48.816;44.624;2023-04-04T08:33:15;101164;;;20.8;44.9
49583;BME280;36329;48.816;44.624;2023-04-04T08:36:17;101155;;;21.3;45.3
49583;BME280;36329;48.816;44.624;2023-04-04T08:39:19;101157;;;21.8;42.8
49583;BME280;36329;48.816;44.624;2023-04-04T08:42:21;101149;;;21.7;43.2
49583;BME280;36329;48.816;44.624;2023-04-04T08:45:26;101151;;;21.4;44.1
49583;BME280;36329;48.816;44.624;2023-04-04T08:48:29;101152;;;22.4;41.7
49583;BME280;36329;48.816;44.624;2023-04-04T08:51:32;101150;;;22.7;41.1
49583;BME280;36329;48.816;44.624;2023-04-04T08:54:37;101148;;;21.8;42.2
49583;BME280;36329;48.816;44.624;2023-04-04T08:57:40;101139;;;22.7;40.1
49583;BME280;36329;48.816;44.624;2023-04-04T09:00:42;101142;;;21.9;41.6
49583;BME280;36329;48.816;44.624;2023-04-04T09:03:44;101143;;;21.6;41.7
49583;BME280;36329;48.816;44.624;2023-04-04T09:06:46;101143;;;21.7;41.6
49583;BME280;36329;48.816;44.624;2023-04-04T09:09:49;101141;;;22.3;40.3
49583;BME280;36329;48.816;44.624;2023-04-04T09:12:53;101148;;;22.1;39.7
49583;BME280;36329;48.816;44.624;2023-04-04T09:15:57;101147;;;22.8;39.1
49583;BME280;36329;48.816;44.624;2023-04-04T09:19:00;101146;;;22.9;38.3
49583;BME280;36329;48.816;44.624;2023-04-04T09:22:06;101153;;;22.4;38.3
49583;BME280;36329;48.816;44.624;2023-04-04T09:25:09;101139;;;22.4;37.3
49583;BME280;36329;48.816;44.624;2023-04-04T09:28:13;101150;;;22.5;37.1
49583;BME280;36329;48.816;44.624;2023-04-04T09:31:15;101144;;;22.5;38
49583;BME280;36329;48.816;44.624;2023-04-04T09:34:19;101136;;;22.4;38.4
49583;BME280;36329;48.816;44.624;2023-04-04T09:37:21;101147;;;20.8;39.9
49583;BME280;36329;48.816;44.624;2023-04-04T09:40:23;101139;;;21;39.6
49583;BME280;36329;48.816;44.624;2023-04-04T09:43:25;101145;;;20.6;39.7
49583;BME280;36329;48.816;44.624;2023-04-04T09:46:27;101142;;;20.1;41
49583;BME280;36329;48.816;44.624;2023-04-04T09:49:30;101135;;;20.1;41.2
49583;BME280;36329;48.816;44.624;2023-04-04T09:52:33;101137;;;21.3;38.8
49583;BME280;36329;48.816;44.624;2023-04-04T09:55:35;101147;;;21.6;38.3
49583;BME280;36329;48.816;44.624;2023-04-04T09:58:37;101143;;;21.5;38.5
49583;BME280;36329;48.816;44.624;2023-04-04T10:01:40;101145;;;21.6;38.3
49583;BME280;36329;48.816;44.624;2023-04-04T10:04:43;101147;;;21.3;39
49583;BME280;36329;48.816;44.624;2023-04-04T10:07:45;101142;;;21.6;38.3
49583;BME280;36329;48.816;44.624;2023-04-04T10:10:47;101137;;;21.1;38.9
49583;BME280;36329;48.816;44.624;2023-04-04T10:13:51;101140;;;20.5;39.4
49583;BME280;36329;48.816;44.624;2023-04-04T10:16:55;101134;;;20.8;39.4
49583;BME280;36329;48.816;44.624;2023-04-04T10:19:59;101139;;;21.1;39.6
49583;BME280;36329;48.816;44.624;2023-04-04T10:23:02;101134;;;20.7;40.4
49583;BME280;36329;48.816;44.624;2023-04-04T10:26:04;101138;;;20.8;40
49583;BME280;36329;48.816;44.624;2023-04-04T10:29:06;101129;;;20.3;40.6
49583;BME280;36329;48.816;44.624;2023-04-04T10:32:13;101140;;;20.1;41.8
49583;BME280;36329;48.816;44.624;2023-04-04T10:35:21;101137;;;20;41.4
49583;BME280;36329;48.816;44.624;2023-04-04T10:38:28;101142;;;19.6;41.9
49583;BME280;36329;48.816;44.624;2023-04-04T10:41:33;101138;;;19.6;42.3
49583;BME280;36329;48.816;44.624;2023-04-04T10:44:38;101128;;;19.9;41.8
49583;BME280;36329;48.816;44.624;2023-04-04T10:47:40;101120;;;20.3;41
49583;BME280;36329;48.816;44.624;2023-04-04T10:50:42;101130;;;19.8;41.9
49583;BME280;36329;48.816;44.624;2023-04-04T10:53:45;101122;;;19.7;42.3
49583;BME280;36329;48.816;44.624;2023-04-04T10:56:47;101116;;;20;42.4
49583;BME280;36329;48.816;44.624;2023-04-04T10:59:57;101119;;;19.9;41.8
49583;BME280;36329;48.816;44.624;2023-04-04T11:03:01;101116;;;19.9;41.9
49583;BME280;36329;48.816;44.624;2023-04-04T11:06:13;101115;;;20.2;40.9
49583;BME280;36329;48.816;44.624;2023-04-04T11:12:51;101118;;;19.7;42.6
49583;BME280;36329;48.816;44.624;2023-04-04T11:15:55;101115;;;19.7;42.6
49583;BME280;36329;48.816;44.624;2023-04-04T11:18:58;101117;;;19.6;43
49583;BME280;36329;48.816;44.624;2023-04-04T11:22:01;101122;;;19.5;42.6
49583;BME280;36329;48.816;44.624;2023-04-04T11:28:43;101112;;;19.5;42.1
49583;BME280;36329;48.816;44.624;2023-04-04T11:31:47;101118;;;19.3;42.8
49583;BME280;36329;48.816;44.624;2023-04-04T11:34:49;101117;;;19.8;42.5
49583;BME280;36329;48.816;44.624;2023-04-04T11:38:00;101117;;;19.6;42
49583;BME280;36329;48.816;44.624;2023-04-04T11:41:02;101105;;;19.6;42.2
49583;BME280;36329;48.816;44.624;2023-04-04T11:44:07;101113;;;19.6;42.3
49583;BME280;36329;48.816;44.624;2023-04-04T11:47:10;101110;;;19.9;42.1
49583;BME280;36329;48.816;44.624;2023-04-04T11:50:13;101104;;;19.4;42.8
49583;BME280;36329;48.816;44.624;2023-04-04T11:53:15;101105;;;19.7;42.9
49583;BME280;36329;48.816;44.624;2023-04-04T11:56:18;101102;;;19.7;42
49583;BME280;36329;48.816;44.624;2023-04-04T11:59:21;101103;;;19.8;42.3
49583;BME280;36329;48.816;44.624;2023-04-04T12:02:24;101105;;;19.3;42.9
49583;BME280;36329;48.816;44.624;2023-04-04T12:05:27;101110;;;19.1;43.7
49583;BME280;36329;48.816;44.624;2023-04-04T12:08:30;101105;;;19.1;44
49583;BME280;36329;48.816;44.624;2023-04-04T12:11:33;101100;;;18.9;44
49583;BME280;36329;48.816;44.624;2023-04-04T12:14:35;101107;;;19;43.6
49583;BME280;36329;48.816;44.624;2023-04-04T12:17:38;101100;;;19;43.6
49583;BME280;36329;48.816;44.624;2023-04-04T12:20:40;101101;;;19.3;43.2
49583;BME280;36329;48.816;44.624;2023-04-04T12:23:42;101091;;;19.5;42.9
49583;BME280;36329;48.816;44.624;2023-04-04T12:26:46;101091;;;19.6;42.6
49583;BME280;36329;48.816;44.624;2023-04-04T12:29:49;101089;;;19.8;40.7
49583;BME280;36329;48.816;44.624;2023-04-04T12:32:51;101094;;;20.1;41.1
49583;BME280;36329;48.816;44.624;2023-04-04T12:35:54;101086;;;20;39.4
49583;BME280;36329;48.816;44.624;2023-04-04T12:38:57;101093;;;19.4;41.8
49583;BME280;36329;48.816;44.624;2023-04-04T12:42:02;101094;;;19.4;42
49583;BME280;36329;48.816;44.624;2023-04-04T12:45:05;101092;;;19.6;42.3
49583;BME280;36329;48.816;44.624;2023-04-04T12:48:09;101093;;;19.4;41.3
49583;BME280;36329;48.816;44.624;2023-04-04T12:51:11;101093;;;20;41.1
49583;BME280;36329;48.816;44.624;2023-04-04T12:54:25;101093;;;20.1;40.6
49583;BME280;36329;48.816;44.624;2023-04-04T12:57:27;101100;;;20.4;39.7
49583;BME280;36329;48.816;44.624;2023-04-04T13:00:29;101090;;;20.1;40.1
49583;BME280;36329;48.816;44.624;2023-04-04T13:03:32;101089;;;20.2;40.9
49583;BME280;36329;48.816;44.624;2023-04-04T13:06:36;101087;;;20.4;40.6
49583;BME280;36329;48.816;44.624;2023-04-04T13:09:49;101097;;;20.2;39.7
49583;BME280;36329;48.816;44.624;2023-04-04T13:12:53;101091;;;20;40
49583;BME280;36329;48.816;44.624;2023-04-04T13:15:55;101092;;;20;40.7
49583;BME280;36329;48.816;44.624;2023-04-04T13:18:57;101097;;;19.9;41.3
49583;BME280;36329;48.816;44.624;2023-04-04T13:22:00;101090;;;19.9;42
49583;BME280;36329;48.816;44.624;2023-04-04T13:25:03;101095;;;20;41.6
49583;BME280;36329;48.816;44.624;2023-04-04T13:28:05;101092;;;20.1;41.8
49583;BME280;36329;48.816;44.624;2023-04-04T13:31:08;101089;;;20.1;41.4
49583;BME280;36329;48.816;44.624;2023-04-04T13:34:10;101089;;;19.8;41.3
49583;BME280;36329;48.816;44.624;2023-04-04T13:37:12;101089;;;19.9;41.8
49583;BME280;36329;48.816;44.624;2023-04-04T13:40:14;101082;;;19.9;41.1
49583;BME280;36329;48.816;44.624;2023-04-04T13:43:16;101082;;;19.8;41
49583;BME280;36329;48.816;44.624;2023-04-04T13:46:18;101085;;;20;40.9
49583;BME280;36329;48.816;44.624;2023-04-04T13:49:20;101083;;;20;41
49583;BME280;36329;48.816;44.624;2023-04-04T13:52:22;101086;;;19.7;40.5
49583;BME280;36329;48.816;44.624;2023-04-04T13:55:24;101081;;;19.6;41.4
49583;BME280;36329;48.816;44.624;2023-04-04T13:58:26;101081;;;19.6;42.1
49583;BME280;36329;48.816;44.624;2023-04-04T14:01:28;101085;;;19.8;42.2
49583;BME280;36329;48.816;44.624;2023-04-04T14:04:30;101089;;;19.6;42
49583;BME280;36329;48.816;44.624;2023-04-04T14:07:32;101080;;;19.6;42.4
49583;BME280;36329;48.816;44.624;2023-04-04T14:10:34;101079;;;19.4;42.2
49583;BME280;36329;48.816;44.624;2023-04-04T14:13:36;101084;;;19.4;42.9
49583;BME280;36329;48.816;44.624;2023-04-04T14:16:38;101082;;;19.4;42.8
49583;BME280;36329;48.816;44.624;2023-04-04T14:19:42;101082;;;19.3;43.2
49583;BME280;36329;48.816;44.624;2023-04-04T14:22:44;101086;;;19.3;43.7
49583;BME280;36329;48.816;44.624;2023-04-04T14:25:46;101084;;;19.2;44.1
49583;BME280;36329;48.816;44.624;2023-04-04T14:28:48;101081;;;19.3;44.3
49583;BME280;36329;48.816;44.624;2023-04-04T14:31:50;101087;;;19.3;44.3
49583;BME280;36329;48.816;44.624;2023-04-04T14:34:52;101082;;;19.1;44.1
49583;BME280;36329;48.816;44.624;2023-04-04T14:37:54;101086;;;19.1;45.3
49583;BME280;36329;48.816;44.624;2023-04-04T14:40:56;101083;;;19.2;44.1
49583;BME280;36329;48.816;44.624;2023-04-04T14:43:58;101086;;;19;44.6
49583;BME280;36329;48.816;44.624;2023-04-04T14:46:59;101082;;;18.8;45.6
49583;BME280;36329;48.816;44.624;2023-04-04T14:50:01;101081;;;18.9;46.5
49583;BME280;36329;48.816;44.624;2023-04-04T14:53:04;101084;;;19;46.6
49583;BME280;36329;48.816;44.624;2023-04-04T14:56:06;101085;;;19;46.7
49583;BME280;36329;48.816;44.624;2023-04-04T14:59:08;101086;;;18.9;46.8
49583;BME280;36329;48.816;44.624;2023-04-04T15:02:10;101085;;;19;47.6
49583;BME280;36329;48.816;44.624;2023-04-04T15:05:13;101086;;;19;47.7
49583;BME280;36329;48.816;44.624;2023-04-04T15:08:15;101086;;;18.9;47
49583;BME280;36329;48.816;44.624;2023-04-04T15:11:17;101086;;;18.8;47.9
49583;BME280;36329;48.816;44.624;2023-04-04T15:14:19;101083;;;18.8;47.8
49583;BME280;36329;48.816;44.624;2023-04-04T15:17:21;101086;;;18.8;48.2
49583;BME280;36329;48.816;44.624;2023-04-04T15:20:23;101085;;;18.8;48.3
49583;BME280;36329;48.816;44.624;2023-04-04T15:23:25;101080;;;18.6;48.2
49583;BME280;36329;48.816;44.624;2023-04-04T15:26:27;101078;;;18.4;48.8
49583;BME280;36329;48.816;44.624;2023-04-04T15:29:29;101077;;;18.3;49.5
49583;BME280;36329;48.816;44.624;2023-04-04T15:32:31;101078;;;18.2;49.9
49583;BME280;36329;48.816;44.624;2023-04-04T15:35:33;101081;;;18.1;50.1
49583;BME280;36329;48.816;44.624;2023-04-04T15:38:35;101078;;;18.1;50.4
49583;BME280;36329;48.816;44.624;2023-04-04T15:41:37;101083;;;18.1;50.7
49583;BME280;36329;48.816;44.624;2023-04-04T15:44:39;101077;;;18.1;50.3
49583;BME280;36329;48.816;44.624;2023-04-04T15:47:41;101084;;;18.1;50.4
49583;BME280;36329;48.816;44.624;2023-04-04T15:50:43;101082;;;18;50.9
49583;BME280;36329;48.816;44.624;2023-04-04T15:53:45;101081;;;18;50.7
49583;BME280;36329;48.816;44.624;2023-04-04T15:56:47;101082;;;17.9;50.6
49583;BME280;36329;48.816;44.624;2023-04-04T15:59:49;101081;;;17.8;50.9
49583;BME280;36329;48.816;44.624;2023-04-04T16:02:51;101089;;;17.9;51.4
49583;BME280;36329;48.816;44.624;2023-04-04T16:05:53;101088;;;17.9;51.2
49583;BME280;36329;48.816;44.624;2023-04-04T16:08:55;101096;;;17.9;50.8
49583;BME280;36329;48.816;44.624;2023-04-04T16:11:57;101092;;;18;50.7
49583;BME280;36329;48.816;44.624;2023-04-04T16:14:59;101097;;;17.9;50.4
49583;BME280;36329;48.816;44.624;2023-04-04T16:18:02;101098;;;17.8;50.6
49583;BME280;36329;48.816;44.624;2023-04-04T16:21:04;101108;;;17.7;50.8
49583;BME280;36329;48.816;44.624;2023-04-04T16:24:06;101106;;;17.7;50.5
49583;BME280;36329;48.816;44.624;2023-04-04T16:27:09;101103;;;17.6;50.6
49583;BME280;36329;48.816;44.624;2023-04-04T16:30:11;101110;;;17.6;51
49583;BME280;36329;48.816;44.624;2023-04-04T16:33:13;101111;;;17.6;50.7
49583;BME280;36329;48.816;44.624;2023-04-04T16:36:15;101117;;;17.4;50.9
49583;BME280;36329;48.816;44.624;2023-04-04T16:39:17;101112;;;17.3;51.3
49583;BME280;36329;48.816;44.624;2023-04-04T16:42:19;101116;;;17.2;51.8
49583;BME280;36329;48.816;44.624;2023-04-04T16:45:21;101114;;;17.2;51.8
49583;BME280;36329;48.816;44.624;2023-04-04T16:48:23;101121;;;17.1;52.3
49583;BME280;36329;48.816;44.624;2023-04-04T16:51:25;101120;;;17.1;52.4
49583;BME280;36329;48.816;44.624;2023-04-04T16:54:28;101121;;;16.9;53.3
49583;BME280;36329;48.816;44.624;2023-04-04T16:57:31;101123;;;16.8;53.1
49583;BME280;36329;48.816;44.624;2023-04-04T17:00:34;101122;;;16.7;53.9